Terminal Aerodrome Forecast
Issued by NWS

Home | Current Version | Previous Version | Text Only | Print | Product List | Glossary On
Versions: 1 2 3 4 5 6 7 8 9 10 11 12 13 14 15 16 17
000
FTUS42 KMLB 052340
TAFSUA
TAF
KSUA 052340Z 0600/0624 14006KT P6SM FEW025 BKN250
     FM060400 VRB03KT P6SM BKN250
     FM061300 15005KT P6SM SCT025 SCT250
     FM061500 13009KT P6SM VCTS SCT035CB BKN250=

USA.gov is the U.S. government's official web portal to all federal, state and local government web resources and services.